Marietta, GA

8:35 PM EDT on August 29, 2015 (GMT -0400)
Dobbins Air Force Base | | Change Station
CLOSE
Current Station
Airport
Location: Marietta,
Elevation: 1070 ft
Nearby Weather Stations

Elev 1070 ft 33.92 °N, 84.52 °W | Updated 37 minutes ago

Overcast
Overcast
77 °F
Feels Like 77 °F
N
7
Wind Variable Wind from ESE

Today
High -- | Low -- °F
--% Chance of Precip.
Yesterday
High -- | Low -- °F
Precip. -- in
7:09 AM 8:08 PM
Full, 100% visible
Pressure 30.11 in
Visibility 10.0 miles
Clouds Few 6000 ft
Mostly Cloudy 13000 ft
Overcast 25000 ft
Dew Point 64 °F
Humidity 63%
Rainfall 0.00 in
Snow Depth Not available.
UV 0 out of 12
Pollen 8.00 out of 12
Air Quality Not available.
Flu Activity Not available.
METAR KMGE 292358Z 11006KT 10SM FEW060 BKN130 OVC250 25/18 A3013 RMK AO2A SLP195 T02520177 10288 20252 55002 $
Pressure 30.11 in
Visibility 10.0 miles
Clouds Few 6000 ft
Mostly Cloudy 13000 ft
Overcast 25000 ft
Dew Point 64 °F
Humidity 63%
Rainfall 0.00 in
Snow Depth Not available.
UV 0 out of 12
Pollen 8.00 out of 12
Air Quality Not available.
Flu Activity Not available.
METAR KMGE 292358Z 11006KT 10SM FEW060 BKN130 OVC250 25/18 A3013 RMK AO2A SLP195 T02520177 10288 20252 55002 $

10-Day Weather Forecast

×

Almanac

Astronomy

Aug. 29, 2015 Rise Set
Actual Time
Civil Twilight
Nautical Twilight
Astronomical Twilight
Moon
Length of Visible Light
Length of Day
Tomorrow will be .
, % of the Moon is Illuminated

Today's Extremes

State Highs State Lows

Community

WunderPhotos

Upload Photos

1,850,807 photos uploaded!

WunderBlogs® & News

Nearby

Air Quality

  Air Quality AQ Index Pollutant
Not available.

Snow Depth

Station Depth Elevation

Earthquake Activity

City Distance Mag. Time & Date
Minimum magnitude displayed is 2.5.

Coastal Water Temperatures

Place Temperature

Stations

Nearby Weather Stations

Station Location Temp. Windchill Dew Point Humidity Wind Precip. Elev Updated Type